createdAt,value
2022-11-04T00:00:15.087Z,12.27
2022-11-04T00:02:43.320Z,12.20
2022-11-04T00:05:11.981Z,12.16
2022-11-04T00:08:11.631Z,12.10
2022-11-04T00:10:53.330Z,11.93
2022-11-04T00:13:21.403Z,11.91
2022-11-04T00:16:07.842Z,11.92
2022-11-04T00:18:36.916Z,11.96
2022-11-04T00:21:22.868Z,11.99
2022-11-04T00:24:08.328Z,12.07
2022-11-04T00:26:53.457Z,12.03
2022-11-04T00:29:21.064Z,11.94
2022-11-04T00:32:07.571Z,12.02
2022-11-04T00:34:38.049Z,11.95
2022-11-04T00:37:06.804Z,11.95
2022-11-04T00:39:35.435Z,11.98
2022-11-04T00:42:03.610Z,12.13
2022-11-04T00:44:31.426Z,12.15
2022-11-04T00:47:00.793Z,12.10
2022-11-04T00:49:28.296Z,12.07
2022-11-04T00:51:57.313Z,11.97
2022-11-04T00:54:24.936Z,12.10
2022-11-04T00:56:53.964Z,11.97
2022-11-04T00:59:21.675Z,11.90
2022-11-04T01:01:49.957Z,11.88
2022-11-04T01:04:37.254Z,11.97
2022-11-04T01:07:05.107Z,11.97
2022-11-04T01:09:33.193Z,12.05
2022-11-04T01:12:01.057Z,12.08
2022-11-04T01:14:28.925Z,12.11
2022-11-04T01:16:57.323Z,12.18
2022-11-04T01:19:25.230Z,12.21
2022-11-04T01:21:55.299Z,12.45
2022-11-04T01:24:22.903Z,12.46
2022-11-04T01:26:50.764Z,12.29
2022-11-04T01:29:18.516Z,12.36
2022-11-04T01:31:46.334Z,12.38
2022-11-04T01:34:14.149Z,12.29
2022-11-04T01:36:41.782Z,12.26
2022-11-04T01:39:10.945Z,12.21
2022-11-04T01:41:38.789Z,12.22
2022-11-04T01:44:21.538Z,12.18
2022-11-04T01:46:51.191Z,12.13
2022-11-04T01:49:27.446Z,12.13
2022-11-04T01:51:57.837Z,12.16
2022-11-04T01:54:27.658Z,12.12
2022-11-04T01:56:56.221Z,12.04
2022-11-04T01:59:29.034Z,12.18
2022-11-04T02:01:57.000Z,12.31
2022-11-04T02:04:27.315Z,12.03
2022-11-04T02:06:55.908Z,11.88
2022-11-04T02:09:25.143Z,11.96
2022-11-04T02:12:11.783Z,11.93
2022-11-04T02:14:40.110Z,12.01
2022-11-04T02:17:14.791Z,12.04
2022-11-04T02:19:56.331Z,12.09
2022-11-04T02:22:44.475Z,11.97
2022-11-04T02:25:30.477Z,11.87
2022-11-04T02:28:06.777Z,11.87
2022-11-04T02:30:37.106Z,11.73
2022-11-04T02:33:12.812Z,11.61
2022-11-04T02:35:44.150Z,11.44
2022-11-04T02:38:14.549Z,11.39
2022-11-04T02:40:44.311Z,11.43
2022-11-04T02:43:17.421Z,11.49
2022-11-04T02:45:48.562Z,11.47
2022-11-04T02:48:22.142Z,11.41
2022-11-04T02:50:53.104Z,11.40
2022-11-04T02:53:24.013Z,11.35
2022-11-04T02:55:53.698Z,11.29
2022-11-04T02:58:24.030Z,11.35
2022-11-04T03:00:54.330Z,11.32
2022-11-04T03:03:26.808Z,11.25
2022-11-04T03:05:56.119Z,11.18
2022-11-04T03:08:29.102Z,11.10
2022-11-04T03:11:00.423Z,10.99
2022-11-04T03:13:32.917Z,10.90
2022-11-04T03:16:05.365Z,10.71
2022-11-04T03:18:36.513Z,10.63
2022-11-04T03:21:06.394Z,10.68
2022-11-04T03:23:34.447Z,10.76
2022-11-04T03:26:04.861Z,10.74
2022-11-04T03:28:37.694Z,10.74
2022-11-04T03:31:10.369Z,10.89
2022-11-04T03:33:42.156Z,10.85
2022-11-04T03:36:10.114Z,10.84
2022-11-04T03:38:38.365Z,10.91
2022-11-04T03:41:08.576Z,10.74
2022-11-04T03:43:36.943Z,10.83
2022-11-04T03:46:04.978Z,10.87
2022-11-04T03:48:34.378Z,11.00
2022-11-04T03:51:02.315Z,11.14
2022-11-04T03:53:31.494Z,11.18
2022-11-04T03:56:06.111Z,11.10
2022-11-04T03:58:39.328Z,11.07
2022-11-04T04:01:12.630Z,11.00
2022-11-04T04:03:43.897Z,10.81
2022-11-04T04:06:16.477Z,10.83
2022-11-04T04:08:46.469Z,10.73
2022-11-04T04:11:20.178Z,10.57
2022-11-04T04:13:53.301Z,10.58
2022-11-04T04:16:26.224Z,10.47
2022-11-04T04:18:58.882Z,10.35
2022-11-04T04:21:29.809Z,10.29
2022-11-04T04:24:16.888Z,10.25
2022-11-04T04:27:03.905Z,10.17
2022-11-04T04:29:32.041Z,10.10
2022-11-04T04:32:00.940Z,10.17
2022-11-04T04:34:31.958Z,10.13
2022-11-04T04:37:02.241Z,10.10
2022-11-04T04:39:52.506Z,10.09
2022-11-04T04:42:39.893Z,10.07
2022-11-04T04:45:09.735Z,10.13
2022-11-04T04:47:41.140Z,10.08
2022-11-04T04:50:11.027Z,10.03
2022-11-04T04:52:39.922Z,10.03
2022-11-04T04:55:08.393Z,10.13
2022-11-04T04:57:36.434Z,10.08
2022-11-04T05:00:04.871Z,10.10
2022-11-04T05:02:32.731Z,10.10
2022-11-04T05:05:01.397Z,10.08
2022-11-04T05:07:31.127Z,10.17
2022-11-04T05:09:58.841Z,10.09
2022-11-04T05:12:26.839Z,10.08
2022-11-04T05:14:54.812Z,10.16
2022-11-04T05:17:23.144Z,10.20
2022-11-04T05:19:50.953Z,10.22
2022-11-04T05:22:18.958Z,10.16
2022-11-04T05:24:48.175Z,10.26
2022-11-04T05:27:16.388Z,10.23
2022-11-04T05:29:44.549Z,10.18
2022-11-04T05:32:12.684Z,10.29
2022-11-04T05:34:40.572Z,10.28
2022-11-04T05:37:08.761Z,10.23
2022-11-04T05:39:36.621Z,10.36
2022-11-04T05:42:06.389Z,10.37
2022-11-04T05:44:34.052Z,10.30
2022-11-04T05:47:03.971Z,10.30
2022-11-04T05:49:31.809Z,10.29
2022-11-04T05:51:59.975Z,10.38
2022-11-04T05:54:28.003Z,10.29
2022-11-04T05:56:56.000Z,10.50
2022-11-04T05:59:25.360Z,10.65
2022-11-04T06:01:53.368Z,10.54
2022-11-04T06:04:21.435Z,10.65
2022-11-04T06:06:49.221Z,10.48
2022-11-04T06:09:16.909Z,10.49
2022-11-04T06:11:45.343Z,10.83
2022-11-04T06:14:18.376Z,11.04
2022-11-04T06:16:48.168Z,11.00
2022-11-04T06:19:16.419Z,11.05
2022-11-04T06:21:44.158Z,11.13
2022-11-04T06:24:11.904Z,11.03
2022-11-04T06:26:40.267Z,10.79
2022-11-04T06:29:08.051Z,11.06
2022-11-04T06:31:35.715Z,11.36
2022-11-04T06:34:05.066Z,11.54
2022-11-04T06:36:33.823Z,11.70
2022-11-04T06:39:04.855Z,11.69
2022-11-04T06:41:33.080Z,11.70
2022-11-04T06:44:01.819Z,11.81
2022-11-04T06:46:32.658Z,11.69
2022-11-04T06:49:00.371Z,11.57
2022-11-04T06:51:29.608Z,11.34
2022-11-04T06:53:58.849Z,11.53
2022-11-04T06:56:27.053Z,11.65
2022-11-04T06:58:55.419Z,11.57
2022-11-04T07:01:24.578Z,11.61
2022-11-04T07:03:53.275Z,11.60
2022-11-04T07:06:22.332Z,11.66
2022-11-04T07:08:52.702Z,11.70
2022-11-04T07:11:22.855Z,11.73
2022-11-04T07:13:50.587Z,11.90
2022-11-04T07:16:18.871Z,11.92
2022-11-04T07:18:46.753Z,11.91
2022-11-04T07:21:14.280Z,11.92
2022-11-04T07:23:41.922Z,11.83
2022-11-04T07:26:13.728Z,11.93
2022-11-04T07:28:42.595Z,11.95
2022-11-04T07:31:12.907Z,12.22
2022-11-04T07:33:40.861Z,12.34
2022-11-04T07:36:09.690Z,12.47
2022-11-04T07:38:37.458Z,12.33
2022-11-04T07:41:05.270Z,12.59
2022-11-04T07:43:34.904Z,12.54
2022-11-04T07:46:05.258Z,12.55
2022-11-04T07:48:33.490Z,12.41
2022-11-04T07:51:02.691Z,12.53
2022-11-04T07:53:32.265Z,12.61
2022-11-04T07:56:00.642Z,12.77
2022-11-04T07:58:30.570Z,12.84
2022-11-04T08:01:03.617Z,12.68
2022-11-04T08:03:31.912Z,12.66
2022-11-04T08:06:01.013Z,12.77
2022-11-04T08:08:29.822Z,12.79
2022-11-04T08:11:01.322Z,12.88
2022-11-04T08:13:30.815Z,13.07
2022-11-04T08:15:59.001Z,12.85
2022-11-04T08:18:28.461Z,12.83
2022-11-04T08:20:56.550Z,13.07
2022-11-04T08:23:24.369Z,13.24
2022-11-04T08:25:52.324Z,13.42
2022-11-04T08:28:20.390Z,13.49
2022-11-04T08:30:55.588Z,13.60
2022-11-04T08:33:24.710Z,13.77
2022-11-04T08:35:54.272Z,13.74
2022-11-04T08:38:22.277Z,13.93
2022-11-04T08:40:53.411Z,14.07
2022-11-04T08:43:26.034Z,13.99
2022-11-04T08:45:54.305Z,14.13
2022-11-04T08:48:21.962Z,14.20
2022-11-04T08:50:50.174Z,14.27
2022-11-04T08:53:20.486Z,14.31
2022-11-04T08:56:08.491Z,14.42
2022-11-04T08:58:36.265Z,14.80
2022-11-04T09:01:04.194Z,15.12
2022-11-04T09:03:32.746Z,15.34
2022-11-04T09:06:00.368Z,15.69
2022-11-04T09:08:29.304Z,15.51
2022-11-04T09:10:57.306Z,15.29
2022-11-04T09:13:25.554Z,15.26
2022-11-04T09:15:53.297Z,15.69
2022-11-04T09:18:20.905Z,15.60
2022-11-04T09:20:48.539Z,15.44
2022-11-04T09:23:16.213Z,15.49
2022-11-04T09:25:46.348Z,15.81
2022-11-04T09:28:15.208Z,16.28
2022-11-04T09:30:42.789Z,16.76
2022-11-04T09:33:10.958Z,17.49
2022-11-04T09:35:38.816Z,17.83
2022-11-04T09:38:06.360Z,17.43
2022-11-04T09:40:36.531Z,17.32
2022-11-04T09:43:15.353Z,17.13
2022-11-04T09:45:44.088Z,17.20
2022-11-04T09:48:15.002Z,17.24
2022-11-04T09:50:46.317Z,17.13
2022-11-04T09:53:17.801Z,16.83
2022-11-04T09:55:50.978Z,16.91
2022-11-04T09:58:20.218Z,17.72
2022-11-04T10:00:51.620Z,17.79
2022-11-04T10:03:25.156Z,18.27
2022-11-04T10:05:57.781Z,18.78
2022-11-04T10:08:37.575Z,18.46
2022-11-04T10:11:08.782Z,19.14
2022-11-04T10:13:44.310Z,19.26
2022-11-04T10:16:21.126Z,19.36
2022-11-04T10:18:59.048Z,19.93
2022-11-04T10:21:33.575Z,20.09
2022-11-04T10:24:09.217Z,20.59
2022-11-04T10:26:44.111Z,21.02
2022-11-04T10:29:15.608Z,21.31
2022-11-04T10:31:44.649Z,21.48
2022-11-04T10:34:19.306Z,20.89
2022-11-04T10:36:48.430Z,20.51
2022-11-04T10:39:24.471Z,19.64
2022-11-04T10:41:52.448Z,19.33
2022-11-04T10:44:24.040Z,19.28
2022-11-04T10:46:56.519Z,19.14
2022-11-04T10:49:38.116Z,19.88
2022-11-04T10:52:07.260Z,20.98
2022-11-04T10:54:42.356Z,20.89
2022-11-04T10:57:12.051Z,20.93
2022-11-04T10:59:48.402Z,20.94
2022-11-04T11:02:16.668Z,21.35
2022-11-04T11:04:47.616Z,20.57
2022-11-04T11:07:19.474Z,20.19
2022-11-04T11:09:54.074Z,19.79
2022-11-04T11:12:49.918Z,19.42
2022-11-04T11:15:29.938Z,19.50
2022-11-04T11:18:01.076Z,19.74
2022-11-04T11:20:28.829Z,20.50
2022-11-04T11:23:01.911Z,22.60
2022-11-04T11:25:34.132Z,24.13
2022-11-04T11:28:03.195Z,25.68
2022-11-04T11:30:34.571Z,25.87
2022-11-04T11:33:04.983Z,25.26
2022-11-04T11:35:35.117Z,25.45
2022-11-04T11:38:06.172Z,23.46
2022-11-04T11:40:47.458Z,22.95
2022-11-04T11:43:26.994Z,23.25
2022-11-04T11:46:00.976Z,23.61
2022-11-04T11:48:30.101Z,24.45
2022-11-04T11:50:59.988Z,25.18
2022-11-04T11:53:30.101Z,24.99
2022-11-04T11:56:04.130Z,25.23
2022-11-04T12:01:28.148Z,26.48
2022-11-04T12:09:40.077Z,21.76
2022-11-04T12:12:24.583Z,20.77
2022-11-04T12:14:59.405Z,20.73
2022-11-04T12:17:39.097Z,23.40
2022-11-04T12:20:16.966Z,20.89
2022-11-04T12:22:48.899Z,16.58
2022-11-04T12:25:21.273Z,18.32
2022-11-04T12:27:53.593Z,19.02
2022-11-04T12:30:30.968Z,20.37
2022-11-04T12:33:15.300Z,17.87
2022-11-04T12:35:52.382Z,15.07
2022-11-04T12:38:28.733Z,16.32
2022-11-04T12:41:37.655Z,17.38
2022-11-04T12:44:01.207Z,18.72
2022-11-04T12:46:34.579Z,21.28
2022-11-04T12:49:19.396Z,20.08
2022-11-04T12:51:53.610Z,17.03
2022-11-04T12:54:38.295Z,15.88
2022-11-04T12:57:12.449Z,16.68
2022-11-04T12:59:55.886Z,16.84
2022-11-04T13:02:26.000Z,16.41
2022-11-04T13:04:59.586Z,16.27
2022-11-04T13:07:32.231Z,16.00
2022-11-04T13:10:01.763Z,17.75
2022-11-04T13:12:32.900Z,18.82
2022-11-04T13:15:02.669Z,22.62
2022-11-04T13:17:32.482Z,23.94
2022-11-04T13:20:02.638Z,22.07
2022-11-04T13:22:33.165Z,20.80
2022-11-04T13:25:04.535Z,20.17
2022-11-04T13:27:34.288Z,19.63
2022-11-04T13:30:05.369Z,18.87
2022-11-04T13:32:36.802Z,18.66
2022-11-04T13:35:10.704Z,18.61
2022-11-04T13:37:44.025Z,16.84
2022-11-04T13:40:15.331Z,16.37
2022-11-04T13:42:55.384Z,16.65
2022-11-04T13:45:25.012Z,17.05
2022-11-04T13:47:55.177Z,17.46
2022-11-04T13:50:30.002Z,17.83
2022-11-04T13:52:59.528Z,18.22
2022-11-04T13:55:27.834Z,17.93
2022-11-04T13:57:57.157Z,17.34
2022-11-04T14:00:25.980Z,17.51
2022-11-04T14:02:54.644Z,17.75
2022-11-04T14:05:53.802Z,17.47
2022-11-04T14:08:22.910Z,17.61
2022-11-04T14:11:14.498Z,17.87
2022-11-04T14:13:46.510Z,17.59
2022-11-04T14:16:34.325Z,17.69
2022-11-04T14:19:23.649Z,17.78
2022-11-04T14:22:06.391Z,17.95
2022-11-04T14:24:35.625Z,17.98
2022-11-04T14:27:03.581Z,17.79
2022-11-04T14:29:32.670Z,17.67
2022-11-04T14:32:01.131Z,17.32
2022-11-04T14:34:30.300Z,17.15
2022-11-04T14:36:59.187Z,17.14
2022-11-04T14:39:31.240Z,17.14
2022-11-04T14:42:01.788Z,16.60
2022-11-04T14:44:35.361Z,16.39
2022-11-04T14:47:08.606Z,16.51
2022-11-04T14:49:41.409Z,16.67
2022-11-04T14:52:16.324Z,16.49
2022-11-04T14:54:44.580Z,16.26
2022-11-04T14:57:17.860Z,16.55
2022-11-04T14:59:45.996Z,16.94
2022-11-04T15:02:17.450Z,16.96
2022-11-04T15:04:48.675Z,16.78
2022-11-04T15:07:24.819Z,15.63
2022-11-04T15:09:52.939Z,15.27
2022-11-04T15:12:39.462Z,15.12
2022-11-04T15:15:25.592Z,15.09
2022-11-04T15:17:53.551Z,14.93
2022-11-04T15:20:24.570Z,14.83
2022-11-04T15:22:52.749Z,14.55
2022-11-04T15:25:20.733Z,14.39
2022-11-04T15:27:50.349Z,14.23
2022-11-04T15:30:21.573Z,13.66
2022-11-04T15:32:56.352Z,13.37
2022-11-04T15:35:24.882Z,13.19
2022-11-04T15:37:54.177Z,13.10
2022-11-04T15:40:23.227Z,12.82
2022-11-04T15:42:53.113Z,12.71
2022-11-04T15:45:31.897Z,12.77
2022-11-04T15:48:18.137Z,12.81
2022-11-04T15:50:46.359Z,12.89
2022-11-04T15:53:16.628Z,12.94
2022-11-04T15:55:44.668Z,12.85
2022-11-04T15:58:15.305Z,12.84
2022-11-04T16:00:44.151Z,12.81
2022-11-04T16:03:18.695Z,12.78
2022-11-04T16:06:00.837Z,12.74
2022-11-04T16:08:29.768Z,12.76
2022-11-04T16:11:12.608Z,12.68
2022-11-04T16:13:42.031Z,12.73
2022-11-04T16:16:18.030Z,12.69
2022-11-04T16:18:50.027Z,12.52
2022-11-04T16:21:23.238Z,12.38
2022-11-04T16:23:52.500Z,12.32
2022-11-04T16:26:25.666Z,12.27
2022-11-04T16:28:56.223Z,12.25
2022-11-04T16:31:25.839Z,12.29
2022-11-04T16:33:53.808Z,12.31
2022-11-04T16:36:24.800Z,12.30
2022-11-04T16:38:57.163Z,12.31
2022-11-04T16:41:25.715Z,12.34
2022-11-04T16:43:55.332Z,12.46
2022-11-04T16:46:25.788Z,12.58
2022-11-04T16:48:53.761Z,12.73
2022-11-04T16:51:22.202Z,12.85
2022-11-04T16:53:50.917Z,12.87
2022-11-04T16:56:19.239Z,12.76
2022-11-04T16:58:47.111Z,12.71
2022-11-04T17:01:16.567Z,12.14
2022-11-04T17:03:44.926Z,11.97
2022-11-04T17:06:15.012Z,11.86
2022-11-04T17:08:43.571Z,11.70
2022-11-04T17:11:11.850Z,11.91
2022-11-04T17:13:40.381Z,12.32
2022-11-04T17:16:09.155Z,12.56
2022-11-04T17:18:38.443Z,12.69
2022-11-04T17:21:07.375Z,12.66
2022-11-04T17:23:38.132Z,12.65
2022-11-04T17:26:06.416Z,12.60
2022-11-04T17:28:34.241Z,12.58
2022-11-04T17:31:03.346Z,12.39
2022-11-04T17:33:31.200Z,12.30
2022-11-04T17:36:06.313Z,12.37
2022-11-04T17:38:35.623Z,12.41
2022-11-04T17:41:21.344Z,12.44
2022-11-04T17:44:01.013Z,12.56
2022-11-04T17:46:35.272Z,12.72
2022-11-04T17:49:04.089Z,12.83
2022-11-04T17:51:33.392Z,12.85
2022-11-04T17:54:01.364Z,12.71
2022-11-04T17:56:29.500Z,12.72
2022-11-04T17:59:02.262Z,12.71
2022-11-04T18:01:30.210Z,12.71
2022-11-04T18:03:58.231Z,12.81
2022-11-04T18:06:26.977Z,12.89
2022-11-04T18:08:57.462Z,12.97
2022-11-04T18:11:43.392Z,13.00
2022-11-04T18:14:16.692Z,13.04
2022-11-04T18:16:46.684Z,13.13
2022-11-04T18:19:15.557Z,13.21
2022-11-04T18:21:43.350Z,13.37
2022-11-04T18:24:13.551Z,13.41
2022-11-04T18:26:42.005Z,13.06
2022-11-04T18:29:11.299Z,12.96
2022-11-04T18:31:44.617Z,12.65
2022-11-04T18:34:17.951Z,12.45
2022-11-04T18:36:46.384Z,12.44
2022-11-04T18:39:16.600Z,12.55
2022-11-04T18:41:48.083Z,12.64
2022-11-04T18:44:19.746Z,12.68
2022-11-04T18:46:47.678Z,12.64
2022-11-04T18:49:15.694Z,12.57
2022-11-04T18:51:43.854Z,12.62
2022-11-04T18:54:12.357Z,12.63
2022-11-04T18:56:44.233Z,12.61
2022-11-04T18:59:12.952Z,12.62
2022-11-04T19:01:41.500Z,12.60
2022-11-04T19:04:10.330Z,12.64
2022-11-04T19:06:41.546Z,12.60
2022-11-04T19:09:32.507Z,12.51
2022-11-04T19:12:13.974Z,12.47
2022-11-04T19:14:41.746Z,12.42
2022-11-04T19:17:09.665Z,12.40
2022-11-04T19:19:37.370Z,12.41
2022-11-04T19:22:05.298Z,12.45
2022-11-04T19:24:33.068Z,12.44
2022-11-04T19:27:02.089Z,12.41
2022-11-04T19:29:30.023Z,12.25
2022-11-04T19:31:57.918Z,12.18
2022-11-04T19:34:26.951Z,12.18
2022-11-04T19:36:54.748Z,12.12
2022-11-04T19:39:22.466Z,12.21
2022-11-04T19:42:07.631Z,12.17
2022-11-04T19:44:36.656Z,12.27
2022-11-04T19:47:04.708Z,12.34
2022-11-04T19:49:32.646Z,12.24
2022-11-04T19:52:01.217Z,12.17
2022-11-04T19:54:29.377Z,12.20
2022-11-04T19:56:58.329Z,12.21
2022-11-04T19:59:25.936Z,12.25
2022-11-04T20:01:55.183Z,12.28
2022-11-04T20:04:23.021Z,12.28
2022-11-04T20:06:50.728Z,11.95
2022-11-04T20:09:18.616Z,11.42
2022-11-04T20:12:03.903Z,11.09
2022-11-04T20:14:34.057Z,11.07
2022-11-04T20:17:03.723Z,11.29
2022-11-04T20:19:31.375Z,11.22
2022-11-04T20:21:59.179Z,11.24
2022-11-04T20:24:27.017Z,11.27
2022-11-04T20:26:56.380Z,11.39
2022-11-04T20:29:24.442Z,11.46
2022-11-04T20:31:52.407Z,11.16
2022-11-04T20:34:21.575Z,11.01
2022-11-04T20:36:50.222Z,11.24
2022-11-04T20:39:19.250Z,11.45
2022-11-04T20:41:47.003Z,11.55
2022-11-04T20:44:17.758Z,11.46
2022-11-04T20:46:45.745Z,11.47
2022-11-04T20:49:13.585Z,11.64
2022-11-04T20:51:48.826Z,11.70
2022-11-04T20:54:18.463Z,11.75
2022-11-04T20:56:46.681Z,11.81
2022-11-04T20:59:15.371Z,11.76
2022-11-04T21:01:44.388Z,11.78
2022-11-04T21:04:15.000Z,11.79
2022-11-04T21:06:44.034Z,11.65
2022-11-04T21:09:12.938Z,11.61
2022-11-04T21:11:41.171Z,11.66
2022-11-04T21:14:09.669Z,11.69
2022-11-04T21:16:38.046Z,11.71
2022-11-04T21:19:05.727Z,11.77
2022-11-04T21:21:34.283Z,11.83
2022-11-04T21:24:04.876Z,11.86
2022-11-04T21:26:34.022Z,11.86
2022-11-04T21:29:03.049Z,11.87
2022-11-04T21:31:32.282Z,11.81
2022-11-04T21:34:00.751Z,11.80
2022-11-04T21:36:29.043Z,11.71
2022-11-04T21:38:56.879Z,11.67
2022-11-04T21:41:26.934Z,11.50
2022-11-04T21:43:55.104Z,11.29
2022-11-04T21:46:24.233Z,11.11
2022-11-04T21:48:52.105Z,11.26
2022-11-04T21:51:20.561Z,11.29
2022-11-04T21:53:48.658Z,11.48
2022-11-04T21:56:17.586Z,11.69
2022-11-04T21:58:47.135Z,11.85
2022-11-04T22:01:16.096Z,11.95
2022-11-04T22:03:44.416Z,11.97
2022-11-04T22:06:12.870Z,11.97
2022-11-04T22:08:44.065Z,11.98
2022-11-04T22:11:13.195Z,12.00
2022-11-04T22:13:40.913Z,12.07
2022-11-04T22:16:14.244Z,12.12
2022-11-04T22:18:42.115Z,12.18
2022-11-04T22:21:13.180Z,12.25
2022-11-04T22:23:41.577Z,12.26
2022-11-04T22:26:11.342Z,12.31
2022-11-04T22:28:39.084Z,12.23
2022-11-04T22:31:07.551Z,12.12
2022-11-04T22:33:37.840Z,12.09
2022-11-04T22:36:06.339Z,12.07
2022-11-04T22:38:34.056Z,12.02
2022-11-04T22:41:02.506Z,11.99
2022-11-04T22:43:30.515Z,12.05
2022-11-04T22:45:58.616Z,12.11
2022-11-04T22:48:26.298Z,12.10
2022-11-04T22:51:00.365Z,12.10
2022-11-04T22:53:28.438Z,12.08
2022-11-04T22:55:59.248Z,12.05
2022-11-04T22:58:26.981Z,11.85
2022-11-04T23:00:56.700Z,11.54
2022-11-04T23:03:24.468Z,11.40
2022-11-04T23:05:54.927Z,11.28
2022-11-04T23:08:23.990Z,11.40
2022-11-04T23:11:09.294Z,11.44
2022-11-04T23:13:54.224Z,11.59
2022-11-04T23:16:40.895Z,11.69
2022-11-04T23:19:08.757Z,11.64
2022-11-04T23:21:53.958Z,11.73
2022-11-04T23:24:40.660Z,11.83
2022-11-04T23:27:08.308Z,11.74
2022-11-04T23:29:58.788Z,11.73
2022-11-04T23:32:27.604Z,11.91
2022-11-04T23:35:13.155Z,12.01
2022-11-04T23:37:40.971Z,12.13
2022-11-04T23:40:10.769Z,12.19
2022-11-04T23:42:38.441Z,11.99
2022-11-04T23:45:24.658Z,11.73
2022-11-04T23:48:14.137Z,11.32
2022-11-04T23:50:59.374Z,11.19
2022-11-04T23:53:44.791Z,10.90
2022-11-04T23:56:31.168Z,10.62
2022-11-04T23:59:16.587Z,10.13
